Troutdale, Oregon
Current Conditions -  °F | °C
As of 2:53 AM on Saturday 25 Oct 2014 (Local Time) from KTTD Reporting Station
Clear Clear  
Wind Chill: 57°   Ceiling: Unl
Heat Index: 57°   Visibility: 10mi
Dew Point: 48°   Wind: 21mph
Humidity: 72%   Direction: 90°E
Pressure: 29.57"   Gusts: 29mph
Location:  45.54°N, 122.38°W
Report Text: KTTD 250953Z AUTO 09018G25KT 10SM CLR 14/09 A2957 RMK AO2 SLP014 T01390089
Loading
Personal Weather Stations






























Interactive Weather Map
Tropical Storm Tracking
New forecast layout! Learn more

10-Day Weather Forecast

Advertisements
Track Severe Weather on mobile